createdAt,value
2018-10-09T00:00:25.422Z,96.84
2018-10-09T00:01:25.413Z,98.03
2018-10-09T00:02:25.405Z,98.07
2018-10-09T00:03:25.373Z,98.13
2018-10-09T00:04:25.367Z,98.18
2018-10-09T00:05:25.374Z,97.25
2018-10-09T00:06:25.391Z,96.73
2018-10-09T00:07:25.351Z,96.12
2018-10-09T00:08:25.340Z,96.43
2018-10-09T00:09:25.367Z,96.33
2018-10-09T00:10:25.313Z,96.12
2018-10-09T00:11:25.291Z,96.02
2018-10-09T00:12:25.287Z,96.02
2018-10-09T00:13:25.305Z,96.12
2018-10-09T00:14:25.273Z,95.86
2018-10-09T00:15:25.379Z,96.12
2018-10-09T00:16:25.263Z,96.06
2018-10-09T00:17:25.240Z,96.12
2018-10-09T00:18:25.232Z,96.27
2018-10-09T00:19:25.213Z,95.75
2018-10-09T00:20:25.195Z,96.27
2018-10-09T00:21:25.221Z,95.81
2018-10-09T00:22:25.175Z,96.47
2018-10-09T00:23:25.196Z,95.96
2018-10-09T00:24:25.178Z,96.37
2018-10-09T00:25:25.140Z,96.06
2018-10-09T00:26:25.131Z,96.37
2018-10-09T00:27:25.130Z,96.17
2018-10-09T00:28:25.130Z,96.78
2018-10-09T00:29:25.109Z,96.68
2018-10-09T00:30:25.101Z,96.17
2018-10-09T00:31:25.076Z,96.06
2018-10-09T00:32:25.112Z,95.86
2018-10-09T00:33:25.078Z,95.96
2018-10-09T00:34:25.052Z,96.21
2018-10-09T00:35:25.048Z,96.17
2018-10-09T00:36:25.021Z,95.96
2018-10-09T00:37:25.020Z,95.70
2018-10-09T00:38:25.057Z,96.11
2018-10-09T00:39:24.994Z,96.31
2018-10-09T00:40:24.973Z,96.31
2018-10-09T00:41:24.962Z,96.42
2018-10-09T00:42:24.964Z,96.31
2018-10-09T00:43:24.965Z,96.11
2018-10-09T00:44:24.930Z,96.00
2018-10-09T00:45:24.917Z,96.00
2018-10-09T00:46:24.902Z,96.25
2018-10-09T00:47:24.897Z,96.97
2018-10-09T00:48:24.882Z,96.67
2018-10-09T00:49:24.893Z,96.15
2018-10-09T00:50:24.861Z,96.05
2018-10-09T00:51:24.894Z,95.74
2018-10-09T00:52:24.839Z,95.95
2018-10-09T00:53:24.828Z,96.25
2018-10-09T00:54:24.850Z,96.36
2018-10-09T00:55:24.830Z,96.46
2018-10-09T00:56:24.807Z,96.56
2018-10-09T00:57:24.785Z,96.77
2018-10-09T00:58:24.776Z,96.46
2018-10-09T00:59:24.759Z,96.36
2018-10-09T01:00:24.763Z,96.46
2018-10-09T01:01:24.758Z,96.15
2018-10-09T01:02:24.727Z,96.05
2018-10-09T01:03:24.739Z,96.15
2018-10-09T01:04:24.728Z,96.09
2018-10-09T01:05:24.717Z,95.02
2018-10-09T01:06:24.696Z,95.06
2018-10-09T01:07:24.687Z,95.58
2018-10-09T01:08:24.670Z,96.15
2018-10-09T01:09:24.664Z,95.74
2018-10-09T01:10:24.654Z,95.74
2018-10-09T01:11:24.701Z,95.58
2018-10-09T01:12:24.613Z,95.33
2018-10-09T01:13:24.633Z,95.12
2018-10-09T01:14:24.588Z,94.60
2018-10-09T01:15:24.581Z,94.30
2018-10-09T01:16:24.589Z,94.92
2018-10-09T01:17:24.556Z,94.71
2018-10-09T01:18:24.587Z,94.96
2018-10-09T01:19:24.539Z,94.60
2018-10-09T01:20:24.531Z,94.81
2018-10-09T01:21:24.542Z,94.60
2018-10-09T01:22:24.541Z,94.40
2018-10-09T01:23:24.492Z,94.20
2018-10-09T01:24:24.502Z,93.88
2018-10-09T01:25:24.504Z,94.76
2018-10-09T01:26:24.500Z,94.09
2018-10-09T01:27:24.517Z,93.68
2018-10-09T01:28:24.460Z,93.83
2018-10-09T01:29:24.437Z,94.13
2018-10-09T01:30:24.445Z,93.37
2018-10-09T01:31:24.404Z,93.93
2018-10-09T01:32:24.396Z,94.03
2018-10-09T01:33:24.405Z,93.99
2018-10-09T01:34:24.382Z,94.09
2018-10-09T01:35:24.368Z,94.24
2018-10-09T01:36:24.382Z,94.13
2018-10-09T01:37:24.361Z,93.83
2018-10-09T01:38:24.360Z,93.93
2018-10-09T01:39:24.336Z,94.24
2018-10-09T01:40:24.303Z,93.93
2018-10-09T01:41:24.315Z,93.83
2018-10-09T01:42:24.282Z,93.93
2018-10-09T01:43:24.279Z,94.76
2018-10-09T01:44:24.290Z,94.65
2018-10-09T01:45:24.246Z,94.13
2018-10-09T01:46:24.237Z,93.62
2018-10-09T01:47:24.230Z,93.93
2018-10-09T01:48:24.213Z,94.03
2018-10-09T01:49:24.231Z,93.62
2018-10-09T01:50:24.198Z,94.13
2018-10-09T01:51:24.203Z,93.73
2018-10-09T01:52:24.197Z,94.96
2018-10-09T01:53:24.201Z,94.65
2018-10-09T01:54:24.173Z,94.76
2018-10-09T01:55:24.144Z,94.96
2018-10-09T01:56:24.134Z,94.76
2018-10-09T01:57:24.163Z,94.65
2018-10-09T01:58:24.111Z,95.02
2018-10-09T01:59:24.101Z,96.09
2018-10-09T02:00:24.124Z,95.89
2018-10-09T02:01:24.079Z,96.09
2018-10-09T02:02:24.062Z,96.46
2018-10-09T02:03:24.056Z,96.15
2018-10-09T02:04:24.051Z,96.67
2018-10-09T02:05:24.070Z,96.25
2018-10-09T02:06:24.019Z,96.46
2018-10-09T02:07:24.020Z,95.84
2018-10-09T02:08:24.109Z,96.15
2018-10-09T02:09:24.030Z,95.43
2018-10-09T02:10:24.014Z,94.56
2018-10-09T02:11:23.993Z,94.92
2018-10-09T02:12:23.993Z,94.26
2018-10-09T02:13:23.956Z,94.87
2018-10-09T02:14:23.958Z,94.77
2018-10-09T02:15:23.971Z,94.46
2018-10-09T02:16:23.928Z,94.67
2018-10-09T02:17:23.926Z,93.84
2018-10-09T02:18:23.902Z,93.64
2018-10-09T02:19:23.921Z,93.74
2018-10-09T02:20:23.940Z,93.64
2018-10-09T02:21:23.870Z,93.88
2018-10-09T02:22:23.861Z,93.79
2018-10-09T02:23:23.841Z,93.95
2018-10-09T02:24:23.861Z,93.48
2018-10-09T02:25:23.844Z,93.68
2018-10-09T02:26:23.840Z,93.27
2018-10-09T02:27:23.792Z,93.88
2018-10-09T02:28:23.807Z,93.37
2018-10-09T02:29:23.769Z,93.99
2018-10-09T02:30:24.319Z,94.09
2018-10-09T02:31:23.835Z,93.99
2018-10-09T02:32:23.778Z,93.79
2018-10-09T02:33:23.871Z,93.79
2018-10-09T02:34:23.704Z,93.88
2018-10-09T02:35:23.709Z,93.79
2018-10-09T02:36:23.691Z,94.40
2018-10-09T02:37:23.886Z,93.79
2018-10-09T02:38:23.661Z,93.68
2018-10-09T02:39:24.296Z,93.48
2018-10-09T02:40:23.713Z,93.06
2018-10-09T02:41:23.813Z,93.48
2018-10-09T02:42:23.639Z,93.88
2018-10-09T02:43:23.642Z,93.88
2018-10-09T02:44:23.606Z,94.24
2018-10-09T02:45:23.594Z,93.48
2018-10-09T02:46:23.575Z,93.93
2018-10-09T02:47:23.587Z,93.93
2018-10-09T02:48:23.576Z,93.93
2018-10-09T02:49:23.548Z,93.62
2018-10-09T02:50:23.539Z,93.93
2018-10-09T02:51:23.540Z,93.83
2018-10-09T02:52:23.587Z,93.93
2018-10-09T02:53:23.519Z,94.03
2018-10-09T02:54:23.574Z,94.80
2018-10-09T02:55:23.486Z,94.70
2018-10-09T02:56:23.562Z,94.80
2018-10-09T02:57:23.530Z,94.59
2018-10-09T02:58:23.495Z,94.28
2018-10-09T02:59:23.449Z,94.90
2018-10-09T03:00:23.459Z,94.59
2018-10-09T03:01:23.406Z,94.49
2018-10-09T03:02:23.401Z,94.43
2018-10-09T03:03:23.401Z,94.80
2018-10-09T03:04:23.409Z,95.15
2018-10-09T03:05:23.373Z,94.84
2018-10-09T03:06:23.374Z,94.84
2018-10-09T03:07:23.349Z,95.36
2018-10-09T03:08:23.348Z,95.46
2018-10-09T03:09:23.340Z,95.56
2018-10-09T03:10:23.350Z,95.25
2018-10-09T03:11:23.325Z,95.56
2018-10-09T03:12:23.295Z,95.73
2018-10-09T03:13:23.285Z,95.83
2018-10-09T03:14:23.311Z,95.62
2018-10-09T03:15:23.287Z,95.31
2018-10-09T03:16:23.252Z,95.15
2018-10-09T03:17:23.288Z,94.95
2018-10-09T03:18:23.316Z,95.15
2018-10-09T03:19:23.209Z,95.15
2018-10-09T03:20:23.221Z,95.25
2018-10-09T03:21:23.242Z,96.59
2018-10-09T03:22:23.199Z,96.74
2018-10-09T03:23:23.180Z,96.59
2018-10-09T03:24:23.157Z,96.70
2018-10-09T03:25:23.298Z,97.52
2018-10-09T03:26:23.137Z,96.91
2018-10-09T03:27:23.132Z,96.95
2018-10-09T03:28:23.107Z,96.91
2018-10-09T03:29:23.119Z,96.49
2018-10-09T03:30:23.136Z,96.59
2018-10-09T03:31:23.089Z,96.80
2018-10-09T03:32:23.087Z,96.59
2018-10-09T03:33:23.085Z,96.80
2018-10-09T03:34:23.039Z,96.91
2018-10-09T03:35:23.031Z,96.91
2018-10-09T03:36:23.141Z,97.52
2018-10-09T03:37:23.005Z,97.31
2018-10-09T03:38:23.003Z,97.01
2018-10-09T03:39:22.981Z,97.42
2018-10-09T03:40:22.985Z,97.27
2018-10-09T03:41:22.991Z,97.17
2018-10-09T03:42:22.977Z,98.03
2018-10-09T03:43:22.967Z,97.94
2018-10-09T03:44:22.990Z,97.52
2018-10-09T03:45:22.925Z,97.63
2018-10-09T03:46:22.948Z,97.42
2018-10-09T03:47:22.967Z,96.70
2018-10-09T03:48:22.904Z,97.21
2018-10-09T03:49:22.886Z,97.42
2018-10-09T03:50:22.871Z,97.11
2018-10-09T03:51:22.884Z,97.31
2018-10-09T03:52:22.905Z,97.21
2018-10-09T03:53:22.838Z,97.11
2018-10-09T03:54:22.827Z,97.11
2018-10-09T03:55:22.916Z,97.26
2018-10-09T03:56:22.796Z,97.52
2018-10-09T03:57:22.816Z,97.77
2018-10-09T03:58:22.843Z,98.24
2018-10-09T03:59:22.797Z,98.14
2018-10-09T04:00:22.761Z,98.14
2018-10-09T04:01:22.785Z,97.31
2018-10-09T04:02:22.738Z,97.31
2018-10-09T04:03:22.797Z,97.21
2018-10-09T04:04:22.718Z,96.74
2018-10-09T04:05:22.725Z,97.11
2018-10-09T04:06:22.703Z,97.11
2018-10-09T04:07:22.709Z,97.42
2018-10-09T04:08:22.702Z,96.74
2018-10-09T04:09:22.695Z,97.52
2018-10-09T04:10:22.688Z,97.11
2018-10-09T04:11:22.658Z,97.31
2018-10-09T04:12:22.654Z,96.91
2018-10-09T04:13:22.609Z,97.16
2018-10-09T04:14:22.624Z,96.59
2018-10-09T04:15:22.591Z,96.70
2018-10-09T04:16:22.574Z,96.64
2018-10-09T04:17:22.628Z,96.44
2018-10-09T04:18:22.557Z,96.70
2018-10-09T04:19:22.590Z,96.23
2018-10-09T04:20:22.547Z,96.28
2018-10-09T04:21:22.554Z,96.39
2018-10-09T04:22:22.515Z,96.23
2018-10-09T04:23:22.526Z,96.44
2018-10-09T04:24:22.489Z,95.92
2018-10-09T04:25:22.501Z,95.71
2018-10-09T04:26:22.479Z,95.81
2018-10-09T04:27:22.467Z,96.48
2018-10-09T04:28:22.480Z,95.96
2018-10-09T04:29:22.459Z,96.12
2018-10-09T04:30:22.423Z,96.48
2018-10-09T04:31:22.472Z,96.74
2018-10-09T04:32:22.461Z,96.89
2018-10-09T04:33:22.395Z,96.64
2018-10-09T04:34:22.373Z,96.44
2018-10-09T04:35:22.372Z,96.64
2018-10-09T04:36:22.387Z,96.48
2018-10-09T04:37:22.357Z,96.27
2018-10-09T04:38:22.357Z,96.02
2018-10-09T04:39:22.320Z,96.06
2018-10-09T04:40:22.313Z,96.02
2018-10-09T04:41:22.345Z,96.44
2018-10-09T04:42:22.391Z,96.12
2018-10-09T04:43:22.313Z,95.92
2018-10-09T04:44:22.269Z,96.02
2018-10-09T04:45:22.265Z,96.33
2018-10-09T04:46:22.268Z,96.23
2018-10-09T04:47:22.268Z,96.44
2018-10-09T04:48:22.267Z,96.74
2018-10-09T04:49:22.281Z,96.44
2018-10-09T04:50:22.219Z,96.53
2018-10-09T04:51:22.189Z,96.53
2018-10-09T04:52:22.173Z,95.98
2018-10-09T04:53:22.240Z,96.59
2018-10-09T04:54:22.158Z,96.18
2018-10-09T04:55:22.138Z,96.91
2018-10-09T04:56:22.133Z,97.11
2018-10-09T04:57:22.151Z,96.80
2018-10-09T04:58:22.145Z,96.08
2018-10-09T04:59:22.119Z,96.49
2018-10-09T05:00:22.103Z,97.11
2018-10-09T05:01:22.079Z,97.21
2018-10-09T05:02:22.113Z,96.80
2018-10-09T05:03:22.052Z,96.66
2018-10-09T05:04:22.072Z,97.01
2018-10-09T05:05:22.071Z,96.91
2018-10-09T05:06:22.090Z,97.27
2018-10-09T05:07:22.006Z,97.06
2018-10-09T05:08:22.014Z,97.17
2018-10-09T05:09:22.001Z,97.27
2018-10-09T05:10:22.021Z,97.06
2018-10-09T05:11:21.973Z,97.17
2018-10-09T05:12:21.959Z,97.38
2018-10-09T05:13:21.937Z,96.71
2018-10-09T05:14:21.944Z,97.06
2018-10-09T05:15:21.979Z,96.92
2018-10-09T05:16:21.904Z,96.30
2018-10-09T05:17:21.921Z,96.20
2018-10-09T05:18:21.890Z,95.89
2018-10-09T05:19:21.895Z,95.78
2018-10-09T05:20:21.885Z,96.20
2018-10-09T05:21:21.858Z,96.20
2018-10-09T05:22:21.843Z,95.95
2018-10-09T05:23:21.881Z,95.58
2018-10-09T05:24:21.825Z,95.23
2018-10-09T05:25:21.822Z,95.27
2018-10-09T05:26:21.807Z,95.95
2018-10-09T05:27:21.799Z,96.25
2018-10-09T05:28:21.787Z,95.84
2018-10-09T05:29:21.816Z,95.84
2018-10-09T05:30:21.757Z,96.09
2018-10-09T05:31:21.913Z,96.25
2018-10-09T05:32:21.769Z,95.84
2018-10-09T05:33:22.334Z,96.77
2018-10-09T05:34:21.758Z,96.88
2018-10-09T05:35:21.733Z,96.77
2018-10-09T05:36:21.701Z,96.25
2018-10-09T05:37:21.676Z,96.77
2018-10-09T05:38:21.685Z,96.25
2018-10-09T05:39:21.704Z,96.25
2018-10-09T05:40:21.648Z,96.46
2018-10-09T05:41:21.678Z,96.77
2018-10-09T05:42:21.638Z,97.13
2018-10-09T05:43:21.634Z,97.28
2018-10-09T05:44:21.678Z,97.49
2018-10-09T05:45:21.682Z,97.69
2018-10-09T05:46:21.625Z,97.75
2018-10-09T05:47:21.626Z,97.75
2018-10-09T05:48:21.571Z,97.55
2018-10-09T05:49:21.559Z,96.93
2018-10-09T05:50:21.555Z,97.14
2018-10-09T05:51:21.549Z,96.52
2018-10-09T05:52:21.527Z,97.09
2018-10-09T05:53:21.512Z,97.30
2018-10-09T05:54:21.510Z,96.78
2018-10-09T05:55:21.530Z,96.58
2018-10-09T05:56:21.513Z,97.09
2018-10-09T05:57:21.482Z,97.30
2018-10-09T05:58:21.468Z,97.40
2018-10-09T05:59:21.429Z,97.09
2018-10-09T06:00:21.436Z,97.30
2018-10-09T06:01:21.414Z,96.58
2018-10-09T06:02:21.399Z,96.68
2018-10-09T06:03:21.395Z,96.68
2018-10-09T06:04:21.405Z,97.09
2018-10-09T06:05:21.365Z,96.99
2018-10-09T06:06:21.353Z,97.81
2018-10-09T06:07:21.375Z,98.33
2018-10-09T06:08:21.330Z,98.12
2018-10-09T06:09:21.344Z,97.50
2018-10-09T06:10:21.341Z,97.91
2018-10-09T06:11:21.336Z,98.94
2018-10-09T06:12:21.310Z,98.53
2018-10-09T06:13:21.312Z,98.22
2018-10-09T06:14:21.263Z,98.63
2018-10-09T06:15:21.317Z,99.05
2018-10-09T06:16:21.286Z,99.25
2018-10-09T06:17:21.266Z,99.35
2018-10-09T06:18:21.231Z,99.51
2018-10-09T06:19:21.242Z,99.82
2018-10-09T06:20:21.222Z,99.21
2018-10-09T06:21:21.199Z,99.93
2018-10-09T06:22:21.409Z,99.62
2018-10-09T06:23:21.193Z,99.82
2018-10-09T06:24:21.221Z,99.82
2018-10-09T06:25:21.846Z,99.82
2018-10-09T06:26:21.128Z,99.41
2018-10-09T06:27:21.184Z,99.41
2018-10-09T06:28:21.236Z,99.62
2018-10-09T06:29:21.116Z,99.51
2018-10-09T06:30:21.105Z,99.41
2018-10-09T06:31:21.086Z,99.93
2018-10-09T06:32:21.859Z,99.57
2018-10-09T06:33:21.089Z,99.93
2018-10-09T06:34:21.053Z,99.88
2018-10-09T06:35:21.055Z,99.98
2018-10-09T06:36:21.030Z,99.98
2018-10-09T06:37:21.077Z,99.37
2018-10-09T06:38:21.020Z,99.77
2018-10-09T06:39:21.015Z,99.52
2018-10-09T06:40:20.999Z,99.32
2018-10-09T06:41:20.995Z,99.52
2018-10-09T06:42:20.974Z,99.63
2018-10-09T06:43:20.982Z,99.21
2018-10-09T06:44:21.008Z,99.11
2018-10-09T06:45:20.964Z,99.63
2018-10-09T06:46:20.974Z,99.63
2018-10-09T06:47:20.909Z,99.52
2018-10-09T06:48:20.921Z,99.58
2018-10-09T06:49:20.934Z,99.32
2018-10-09T06:50:20.875Z,99.58
2018-10-09T06:51:20.905Z,99.17
2018-10-09T06:52:20.928Z,99.38
2018-10-09T06:53:20.906Z,99.27
2018-10-09T06:54:20.883Z,99.58
2018-10-09T06:55:20.850Z,99.79
2018-10-09T06:56:20.804Z,99.43
2018-10-09T06:57:20.863Z,99.74
2018-10-09T06:58:20.790Z,99.84
2018-10-09T06:59:20.770Z,99.99
2018-10-09T07:00:20.821Z,99.99
2018-10-09T07:01:20.769Z,99.99
2018-10-09T07:02:20.737Z,99.99
2018-10-09T07:03:20.739Z,99.99
2018-10-09T07:04:20.733Z,99.99
2018-10-09T07:05:20.705Z,99.99
2018-10-09T07:06:20.688Z,99.99
2018-10-09T07:07:20.717Z,99.99
2018-10-09T07:08:20.725Z,99.99
2018-10-09T07:09:20.747Z,99.99
2018-10-09T07:10:20.661Z,99.99
2018-10-09T07:11:20.749Z,99.99
2018-10-09T07:12:20.632Z,99.99
2018-10-09T07:13:20.623Z,99.99
2018-10-09T07:14:20.604Z,99.99
2018-10-09T07:15:20.590Z,99.99
2018-10-09T07:16:20.576Z,99.86
2018-10-09T07:17:20.570Z,99.55
2018-10-09T07:18:20.644Z,99.35
2018-10-09T07:19:20.595Z,98.83
2018-10-09T07:20:20.556Z,99.10
2018-10-09T07:21:20.537Z,99.25
2018-10-09T07:22:20.527Z,98.58
2018-10-09T07:23:20.609Z,97.87
2018-10-09T07:24:20.510Z,98.38
2018-10-09T07:25:20.505Z,97.92
2018-10-09T07:26:20.472Z,98.33
2018-10-09T07:27:20.485Z,98.38
2018-10-09T07:28:20.447Z,98.24
2018-10-09T07:29:20.454Z,98.13
2018-10-09T07:30:20.504Z,99.15
2018-10-09T07:31:20.405Z,98.49
2018-10-09T07:32:20.401Z,98.70
2018-10-09T07:33:20.419Z,98.70
2018-10-09T07:34:20.419Z,99.11
2018-10-09T07:35:20.398Z,99.06
2018-10-09T07:36:20.425Z,99.27
2018-10-09T07:37:20.367Z,99.11
2018-10-09T07:38:20.347Z,99.06
2018-10-09T07:39:20.354Z,99.47
2018-10-09T07:40:20.334Z,99.37
2018-10-09T07:41:20.352Z,99.99
2018-10-09T07:42:20.315Z,99.78
2018-10-09T07:43:20.288Z,99.99
2018-10-09T07:44:20.316Z,99.93
2018-10-09T07:45:20.246Z,99.93
2018-10-09T07:46:20.277Z,99.93
2018-10-09T07:47:20.236Z,99.32
2018-10-09T07:48:20.264Z,99.43
2018-10-09T07:49:20.235Z,99.32
2018-10-09T07:50:20.257Z,99.99
2018-10-09T07:51:20.225Z,99.89
2018-10-09T07:52:20.204Z,99.99
2018-10-09T07:53:20.166Z,99.48
2018-10-09T07:54:20.151Z,98.77
2018-10-09T07:55:20.145Z,99.07
2018-10-09T07:56:20.125Z,98.41
2018-10-09T07:57:20.148Z,98.05
2018-10-09T07:58:20.138Z,97.80
2018-10-09T07:59:20.129Z,97.08
2018-10-09T08:00:20.110Z,97.19
2018-10-09T08:01:20.103Z,97.19
2018-10-09T08:02:20.069Z,97.34
2018-10-09T08:03:20.083Z,97.19
2018-10-09T08:04:20.059Z,96.94
2018-10-09T08:05:20.050Z,96.73
2018-10-09T08:06:20.031Z,96.43
2018-10-09T08:07:20.008Z,96.22
2018-10-09T08:08:20.078Z,95.81
2018-10-09T08:09:19.995Z,95.92
2018-10-09T08:10:19.987Z,96.28
2018-10-09T08:11:19.975Z,95.87
2018-10-09T08:12:20.040Z,95.77
2018-10-09T08:13:19.950Z,95.47
2018-10-09T08:14:20.054Z,95.47
2018-10-09T08:15:19.969Z,95.47
2018-10-09T08:16:20.063Z,94.81
2018-10-09T08:17:19.949Z,95.12
2018-10-09T08:18:19.908Z,94.20
2018-10-09T08:19:19.960Z,94.60
2018-10-09T08:20:19.931Z,94.91
2018-10-09T08:21:19.922Z,94.20
2018-10-09T08:22:27.469Z,94.30
2018-10-09T08:24:12.794Z,93.74
2018-10-09T08:25:12.786Z,93.64
2018-10-09T08:26:12.846Z,93.54
2018-10-09T08:27:12.748Z,94.05
2018-10-09T08:28:12.770Z,95.17
2018-10-09T08:29:12.812Z,95.43
2018-10-09T08:30:12.853Z,94.42
2018-10-09T08:31:12.785Z,94.11
2018-10-09T08:32:13.276Z,93.60
2018-10-09T08:33:12.803Z,93.70
2018-10-09T08:34:12.673Z,93.55
2018-10-09T08:35:12.662Z,93.09
2018-10-09T08:36:12.702Z,92.68
2018-10-09T08:37:12.769Z,93.60
2018-10-09T08:38:13.072Z,92.94
2018-10-09T08:39:12.611Z,92.64
2018-10-09T08:40:12.720Z,91.56
2018-10-09T08:41:12.745Z,92.68
2018-10-09T08:42:12.705Z,92.58
2018-10-09T08:43:13.834Z,93.29
2018-10-09T08:44:12.608Z,93.60
2018-10-09T08:45:12.552Z,93.60
2018-10-09T08:46:12.556Z,92.68
2018-10-09T08:47:12.537Z,93.45
2018-10-09T08:48:12.511Z,92.44
2018-10-09T08:49:12.720Z,92.89
2018-10-09T08:50:12.546Z,92.54
2018-10-09T08:51:12.520Z,92.84
2018-10-09T08:52:12.480Z,93.05
2018-10-09T08:53:12.495Z,92.84
2018-10-09T08:54:12.919Z,92.44
2018-10-09T08:55:12.929Z,92.23
2018-10-09T08:56:12.440Z,92.94
2018-10-09T08:57:12.431Z,92.64
2018-10-09T08:58:12.446Z,92.54
2018-10-09T08:59:12.495Z,93.45
2018-10-09T09:00:12.540Z,93.66
2018-10-09T09:01:12.825Z,92.94
2018-10-09T09:02:12.516Z,92.54
2018-10-09T09:03:12.665Z,92.40
2018-10-09T09:04:12.372Z,91.88
2018-10-09T09:05:12.316Z,93.01
2018-10-09T09:06:12.411Z,91.78
2018-10-09T09:07:12.321Z,91.68
2018-10-09T09:08:12.413Z,92.09
2018-10-09T09:09:12.314Z,92.03
2018-10-09T09:10:12.269Z,91.88
2018-10-09T09:11:12.368Z,91.68
2018-10-09T09:12:12.268Z,91.68
2018-10-09T09:13:12.227Z,91.68
2018-10-09T09:14:12.242Z,91.78
2018-10-09T09:15:12.253Z,91.84
2018-10-09T09:16:12.238Z,91.13
2018-10-09T09:17:12.472Z,91.78
2018-10-09T09:18:12.191Z,91.33
2018-10-09T09:19:12.268Z,91.94
2018-10-09T09:20:12.157Z,91.33
2018-10-09T09:21:12.204Z,91.84
2018-10-09T09:22:12.142Z,91.84
2018-10-09T09:23:12.172Z,92.14
2018-10-09T09:24:12.136Z,92.10
2018-10-09T09:25:12.108Z,91.60
2018-10-09T09:26:12.099Z,91.69
2018-10-09T09:27:12.179Z,91.49
2018-10-09T09:28:12.064Z,90.88
2018-10-09T09:29:12.128Z,90.88
2018-10-09T09:30:12.089Z,90.48
2018-10-09T09:31:12.023Z,89.66
2018-10-09T09:32:12.120Z,91.09
2018-10-09T09:33:12.083Z,90.74
2018-10-09T09:34:12.010Z,90.03
2018-10-09T09:35:12.010Z,90.33
2018-10-09T09:36:11.965Z,90.13
2018-10-09T09:37:12.108Z,89.42
2018-10-09T09:38:11.955Z,89.42
2018-10-09T09:39:11.986Z,89.31
2018-10-09T09:40:11.967Z,89.92
2018-10-09T09:41:11.946Z,89.22
2018-10-09T09:42:11.925Z,88.71
2018-10-09T09:43:12.002Z,88.60
2018-10-09T09:44:11.894Z,89.31
2018-10-09T09:45:11.864Z,88.60
2018-10-09T09:46:12.080Z,89.07
2018-10-09T09:47:11.924Z,89.28
2018-10-09T09:48:11.832Z,89.68
2018-10-09T09:49:11.894Z,89.58
2018-10-09T09:50:11.942Z,89.17
2018-10-09T09:51:11.806Z,89.28
2018-10-09T09:52:11.854Z,88.97
2018-10-09T09:53:11.800Z,88.76
2018-10-09T09:54:11.778Z,88.26
2018-10-09T09:55:11.902Z,88.56
2018-10-09T09:56:11.795Z,88.16
2018-10-09T09:57:11.733Z,87.81
2018-10-09T09:58:12.657Z,88.06
2018-10-09T09:59:11.901Z,88.87
2018-10-09T10:00:11.724Z,88.87
2018-10-09T10:01:11.757Z,88.87
2018-10-09T10:02:11.680Z,88.46
2018-10-09T10:03:11.677Z,88.36
2018-10-09T10:04:11.658Z,88.52
2018-10-09T10:05:11.656Z,87.81
2018-10-09T10:06:19.124Z,88.42
2018-10-09T10:07:11.616Z,88.52
2018-10-09T10:08:20.447Z,87.81
2018-10-09T10:09:18.659Z,88.01
2018-10-09T10:10:11.582Z,88.12
2018-10-09T10:11:11.722Z,88.01
2018-10-09T10:12:11.584Z,88.01
2018-10-09T10:13:11.565Z,87.92
2018-10-09T10:14:11.535Z,88.01
2018-10-09T10:15:11.524Z,88.32
2018-10-09T10:16:11.532Z,88.46
2018-10-09T10:17:11.510Z,88.01
2018-10-09T10:18:11.504Z,88.52
2018-10-09T10:19:11.535Z,88.21
2018-10-09T10:20:11.508Z,88.42
2018-10-09T10:21:11.528Z,87.61
2018-10-09T10:22:11.472Z,88.01
2018-10-09T10:23:11.463Z,87.77
2018-10-09T10:24:11.626Z,87.40
2018-10-09T10:25:11.413Z,87.81
2018-10-09T10:26:11.453Z,87.97
2018-10-09T10:27:11.598Z,87.61
2018-10-09T10:28:11.463Z,86.35
2018-10-09T10:29:11.419Z,87.20
2018-10-09T10:30:11.425Z,87.51
2018-10-09T10:31:11.655Z,88.21
2018-10-09T10:32:11.397Z,87.61
2018-10-09T10:33:11.360Z,87.37
2018-10-09T10:34:11.313Z,86.59
2018-10-09T10:35:11.302Z,86.08
2018-10-09T10:36:11.288Z,86.25
2018-10-09T10:37:11.285Z,85.47
2018-10-09T10:38:11.276Z,85.38
2018-10-09T10:39:11.271Z,85.64
2018-10-09T10:40:18.278Z,86.86
2018-10-09T10:41:11.247Z,85.94
2018-10-09T10:42:11.373Z,85.33
2018-10-09T10:43:11.264Z,84.93
2018-10-09T10:44:11.231Z,84.93
2018-10-09T10:45:11.200Z,85.44
2018-10-09T10:46:11.209Z,85.03
2018-10-09T10:47:11.177Z,85.13
2018-10-09T10:48:11.182Z,85.24
2018-10-09T10:49:11.314Z,84.12
2018-10-09T10:50:11.131Z,85.03
2018-10-09T10:51:11.131Z,84.63
2018-10-09T10:52:11.112Z,85.30
2018-10-09T10:53:11.106Z,84.58
2018-10-09T10:54:11.113Z,84.28
2018-10-09T10:55:11.121Z,83.37
2018-10-09T10:56:11.147Z,83.47
2018-10-09T10:57:11.076Z,82.35
2018-10-09T10:58:18.109Z,81.95
2018-10-09T10:59:11.700Z,82.05
2018-10-09T11:00:11.047Z,82.05
2018-10-09T11:01:11.042Z,83.67
2018-10-09T11:02:11.002Z,83.17
2018-10-09T11:03:11.007Z,83.06
2018-10-09T11:04:18.271Z,83.06
2018-10-09T11:05:10.966Z,83.87
2018-10-09T11:06:10.995Z,82.15
2018-10-09T11:07:10.965Z,81.44
2018-10-09T11:08:10.958Z,81.24
2018-10-09T11:09:10.989Z,80.69
2018-10-09T11:10:10.927Z,80.69
2018-10-09T11:11:11.720Z,82.15
2018-10-09T11:12:10.883Z,82.01
2018-10-09T11:13:10.872Z,81.24
2018-10-09T11:14:10.861Z,81.34
2018-10-09T11:15:18.324Z,82.56
2018-10-09T11:16:10.838Z,81.20
2018-10-09T11:17:10.828Z,81.91
2018-10-09T11:18:10.820Z,81.81
2018-10-09T11:19:10.804Z,81.30
2018-10-09T11:20:11.251Z,81.30
2018-10-09T11:21:10.928Z,81.40
2018-10-09T11:22:10.799Z,81.30
2018-10-09T11:23:10.770Z,81.60
2018-10-09T11:24:10.773Z,80.69
2018-10-09T11:25:10.738Z,81.50
2018-10-09T11:26:10.755Z,82.42
2018-10-09T11:27:10.735Z,80.90
2018-10-09T11:28:17.733Z,81.40
2018-10-09T11:29:10.708Z,81.30
2018-10-09T11:30:10.810Z,81.40
2018-10-09T11:31:10.687Z,81.30
2018-10-09T11:32:10.666Z,81.30
2018-10-09T11:33:10.651Z,80.55
2018-10-09T11:34:10.679Z,80.96
2018-10-09T11:35:17.693Z,81.06
2018-10-09T11:36:10.612Z,81.20
2018-10-09T11:37:17.927Z,81.16
2018-10-09T11:38:10.596Z,81.26
2018-10-09T11:39:10.678Z,81.06
2018-10-09T11:40:10.584Z,81.26
2018-10-09T11:41:10.558Z,81.77
2018-10-09T11:42:10.557Z,80.65
2018-10-09T11:43:10.579Z,81.37
2018-10-09T11:44:10.535Z,81.26
2018-10-09T11:45:10.517Z,81.26
2018-10-09T11:46:10.524Z,81.16
2018-10-09T11:47:10.559Z,81.46
2018-10-09T11:48:10.478Z,81.06
2018-10-09T11:49:10.483Z,82.07
2018-10-09T11:50:10.458Z,81.06
2018-10-09T11:51:10.464Z,81.77
2018-10-09T11:52:17.474Z,81.77
2018-10-09T11:53:10.422Z,81.16
2018-10-09T11:54:10.425Z,81.46
2018-10-09T11:55:10.421Z,81.26
2018-10-09T11:56:10.388Z,82.07
2018-10-09T11:57:10.383Z,81.97
2018-10-09T11:58:10.439Z,82.28
2018-10-09T11:59:10.449Z,82.17
2018-10-09T12:00:10.348Z,81.16
2018-10-09T12:01:10.395Z,81.46
2018-10-09T12:02:10.355Z,81.37
2018-10-09T12:03:10.311Z,81.26
2018-10-09T12:04:10.303Z,81.26
2018-10-09T12:05:10.289Z,81.46
2018-10-09T12:06:10.288Z,81.26
2018-10-09T12:07:10.355Z,81.57
2018-10-09T12:08:10.279Z,81.73
2018-10-09T12:09:10.241Z,81.93
2018-10-09T12:10:10.262Z,81.37
2018-10-09T12:11:10.220Z,81.93
2018-10-09T12:12:10.209Z,81.12
2018-10-09T12:13:10.211Z,81.32
2018-10-09T12:14:10.193Z,81.09
2018-10-09T12:15:10.174Z,80.38
2018-10-09T12:16:10.178Z,80.38
2018-10-09T12:17:10.289Z,79.67
2018-10-09T12:18:10.173Z,80.38
2018-10-09T12:19:10.184Z,79.67
2018-10-09T12:20:10.122Z,80.21
2018-10-09T12:21:10.120Z,80.27
2018-10-09T12:22:10.094Z,79.97
2018-10-09T12:23:10.128Z,79.77
2018-10-09T12:24:10.072Z,80.88
2018-10-09T12:25:10.064Z,81.09
2018-10-09T12:26:10.061Z,79.97
2018-10-09T12:27:10.164Z,78.75
2018-10-09T12:28:10.072Z,78.72
2018-10-09T12:29:10.022Z,79.22
2018-10-09T12:30:10.009Z,80.04
2018-10-09T12:31:09.994Z,79.49
2018-10-09T12:32:09.986Z,77.67
2018-10-09T12:33:09.990Z,76.56
2018-10-09T12:34:10.019Z,77.57
2018-10-09T12:35:09.949Z,78.75
2018-10-09T12:36:10.030Z,77.33
2018-10-09T12:37:09.949Z,77.03
2018-10-09T12:38:09.924Z,77.73
2018-10-09T12:39:09.912Z,77.80
2018-10-09T12:40:09.896Z,75.88
2018-10-09T12:41:09.947Z,75.37
2018-10-09T12:42:09.872Z,75.57
2018-10-09T12:43:09.893Z,75.88
2018-10-09T12:44:09.857Z,76.52
2018-10-09T12:45:09.871Z,76.69
2018-10-09T12:46:09.828Z,76.93
2018-10-09T12:47:09.814Z,75.71
2018-10-09T12:48:09.810Z,76.89
2018-10-09T12:49:09.811Z,76.79
2018-10-09T12:50:09.936Z,76.82
2018-10-09T12:51:09.769Z,76.48
2018-10-09T12:52:09.759Z,76.79
2018-10-09T12:53:09.771Z,77.13